sensor_id;sensor_type;location;lat;lon;timestamp;pressure;altitude;pressure_sealevel;temperature;humidity
43420;BME280;29017;51.514;-0.178;2023-07-16T00:00:45;99970.13;;;18.86;80.21
43420;BME280;29017;51.514;-0.178;2023-07-16T00:03:12;99966.41;;;18.87;80.57
43420;BME280;29017;51.514;-0.178;2023-07-16T00:05:41;99972.34;;;18.89;80.70
43420;BME280;29017;51.514;-0.178;2023-07-16T00:08:08;99980.91;;;18.91;80.67
43420;BME280;29017;51.514;-0.178;2023-07-16T00:10:36;99979.19;;;18.96;80.96
43420;BME280;29017;51.514;-0.178;2023-07-16T00:13:04;99970.84;;;18.93;80.27
43420;BME280;29017;51.514;-0.178;2023-07-16T00:15:32;99977.56;;;18.95;80.47
43420;BME280;29017;51.514;-0.178;2023-07-16T00:17:59;99985.34;;;18.97;80.24
43420;BME280;29017;51.514;-0.178;2023-07-16T00:20:27;99975.25;;;18.99;80.60
43420;BME280;29017;51.514;-0.178;2023-07-16T00:22:54;99981.63;;;18.98;80.67
43420;BME280;29017;51.514;-0.178;2023-07-16T00:25:22;99975.63;;;19.02;81.06
43420;BME280;29017;51.514;-0.178;2023-07-16T00:27:49;99976.66;;;19.01;80.02
43420;BME280;29017;51.514;-0.178;2023-07-16T00:30:16;99977.00;;;18.93;80.13
43420;BME280;29017;51.514;-0.178;2023-07-16T00:32:43;99981.50;;;18.93;80.87
43420;BME280;29017;51.514;-0.178;2023-07-16T00:35:11;99985.00;;;18.93;81.08
43420;BME280;29017;51.514;-0.178;2023-07-16T00:37:38;99980.09;;;18.90;80.81
43420;BME280;29017;51.514;-0.178;2023-07-16T00:40:06;99973.16;;;18.89;81.11
43420;BME280;29017;51.514;-0.178;2023-07-16T00:42:34;99988.09;;;18.90;81.12
43420;BME280;29017;51.514;-0.178;2023-07-16T00:45:02;99997.59;;;18.86;81.69
43420;BME280;29017;51.514;-0.178;2023-07-16T00:47:30;99990.06;;;18.83;81.69
43420;BME280;29017;51.514;-0.178;2023-07-16T00:49:58;99997.69;;;18.79;81.89
43420;BME280;29017;51.514;-0.178;2023-07-16T00:52:25;99996.66;;;18.80;81.83
43420;BME280;29017;51.514;-0.178;2023-07-16T00:54:53;100006.50;;;18.80;81.59
43420;BME280;29017;51.514;-0.178;2023-07-16T00:57:23;99994.66;;;18.76;81.53
43420;BME280;29017;51.514;-0.178;2023-07-16T00:59:50;99997.31;;;18.76;81.47
43420;BME280;29017;51.514;-0.178;2023-07-16T01:02:18;99994.09;;;18.74;82.04
43420;BME280;29017;51.514;-0.178;2023-07-16T01:04:45;100000.47;;;18.73;81.87
43420;BME280;29017;51.514;-0.178;2023-07-16T01:07:14;99996.16;;;18.72;81.78
43420;BME280;29017;51.514;-0.178;2023-07-16T01:09:42;100008.22;;;18.74;82.01
43420;BME280;29017;51.514;-0.178;2023-07-16T01:12:10;100010.31;;;18.72;82.04
43420;BME280;29017;51.514;-0.178;2023-07-16T01:14:39;100020.63;;;18.69;81.71
43420;BME280;29017;51.514;-0.178;2023-07-16T01:17:07;100006.47;;;18.68;81.85
43420;BME280;29017;51.514;-0.178;2023-07-16T01:19:35;100016.75;;;18.65;81.74
43420;BME280;29017;51.514;-0.178;2023-07-16T01:30:08;100016.53;;;18.66;82.02
43420;BME280;29017;51.514;-0.178;2023-07-16T01:32:36;100021.41;;;18.69;82.21
43420;BME280;29017;51.514;-0.178;2023-07-16T01:35:06;100029.66;;;18.68;81.78
43420;BME280;29017;51.514;-0.178;2023-07-16T01:37:33;100018.84;;;18.63;81.41
43420;BME280;29017;51.514;-0.178;2023-07-16T01:40:02;100028.22;;;18.65;81.62
43420;BME280;29017;51.514;-0.178;2023-07-16T01:42:30;100029.25;;;18.64;81.60
43420;BME280;29017;51.514;-0.178;2023-07-16T01:44:57;100030.75;;;18.60;81.50
43420;BME280;29017;51.514;-0.178;2023-07-16T01:49:52;100022.56;;;18.44;81.10
43420;BME280;29017;51.514;-0.178;2023-07-16T01:52:19;100031.78;;;18.41;81.63
43420;BME280;29017;51.514;-0.178;2023-07-16T01:54:47;100029.13;;;18.41;81.46
43420;BME280;29017;51.514;-0.178;2023-07-16T01:57:14;100036.91;;;18.43;82.16
43420;BME280;29017;51.514;-0.178;2023-07-16T01:59:42;100047.31;;;18.44;80.93
43420;BME280;29017;51.514;-0.178;2023-07-16T02:02:09;100048.53;;;18.48;80.94
43420;BME280;29017;51.514;-0.178;2023-07-16T02:04:36;100041.19;;;18.44;79.89
43420;BME280;29017;51.514;-0.178;2023-07-16T02:07:04;100055.31;;;18.44;80.17
43420;BME280;29017;51.514;-0.178;2023-07-16T02:09:33;100057.75;;;18.46;80.17
43420;BME280;29017;51.514;-0.178;2023-07-16T02:12:01;100051.19;;;18.48;79.96
43420;BME280;29017;51.514;-0.178;2023-07-16T02:14:28;100057.34;;;18.49;79.10
43420;BME280;29017;51.514;-0.178;2023-07-16T02:16:56;100062.66;;;18.49;79.01
43420;BME280;29017;51.514;-0.178;2023-07-16T02:19:23;100066.28;;;18.54;78.31
43420;BME280;29017;51.514;-0.178;2023-07-16T02:21:52;100061.16;;;18.53;78.00
43420;BME280;29017;51.514;-0.178;2023-07-16T02:24:21;100066.72;;;18.51;77.74
43420;BME280;29017;51.514;-0.178;2023-07-16T02:26:48;100072.03;;;18.51;78.31
43420;BME280;29017;51.514;-0.178;2023-07-16T02:29:16;100075.97;;;18.49;77.74
43420;BME280;29017;51.514;-0.178;2023-07-16T02:31:43;100059.19;;;18.48;77.47
43420;BME280;29017;51.514;-0.178;2023-07-16T02:34:13;100083.38;;;18.47;76.91
43420;BME280;29017;51.514;-0.178;2023-07-16T02:36:40;100086.25;;;18.45;77.18
43420;BME280;29017;51.514;-0.178;2023-07-16T02:39:08;100086.91;;;18.41;76.64
43420;BME280;29017;51.514;-0.178;2023-07-16T02:41:35;100092.25;;;18.41;77.41
43420;BME280;29017;51.514;-0.178;2023-07-16T02:44:05;100084.09;;;18.35;76.71
43420;BME280;29017;51.514;-0.178;2023-07-16T02:46:35;100091.75;;;18.32;76.67
43420;BME280;29017;51.514;-0.178;2023-07-16T02:49:03;100082.78;;;18.26;77.25
43420;BME280;29017;51.514;-0.178;2023-07-16T02:51:31;100079.50;;;18.24;76.92
43420;BME280;29017;51.514;-0.178;2023-07-16T02:53:58;100088.56;;;18.23;77.26
43420;BME280;29017;51.514;-0.178;2023-07-16T02:56:25;100086.31;;;18.20;77.90
43420;BME280;29017;51.514;-0.178;2023-07-16T02:58:53;100099.84;;;18.19;77.95
43420;BME280;29017;51.514;-0.178;2023-07-16T03:01:20;100099.84;;;18.19;78.00
43420;BME280;29017;51.514;-0.178;2023-07-16T03:03:47;100097.56;;;18.22;78.12
43420;BME280;29017;51.514;-0.178;2023-07-16T03:06:15;100102.28;;;18.20;76.13
43420;BME280;29017;51.514;-0.178;2023-07-16T03:08:46;100101.13;;;18.16;76.43
43420;BME280;29017;51.514;-0.178;2023-07-16T03:11:14;100102.16;;;18.15;76.18
43420;BME280;29017;51.514;-0.178;2023-07-16T03:13:41;100111.41;;;18.13;76.53
43420;BME280;29017;51.514;-0.178;2023-07-16T03:16:08;100107.91;;;18.12;77.04
43420;BME280;29017;51.514;-0.178;2023-07-16T03:18:36;100113.66;;;18.09;76.11
43420;BME280;29017;51.514;-0.178;2023-07-16T03:21:03;100121.28;;;18.06;76.38
43420;BME280;29017;51.514;-0.178;2023-07-16T03:23:31;100126.41;;;18.07;76.82
43420;BME280;29017;51.514;-0.178;2023-07-16T03:25:58;100129.66;;;18.09;77.41
43420;BME280;29017;51.514;-0.178;2023-07-16T03:28:25;100134.56;;;18.12;77.67
43420;BME280;29017;51.514;-0.178;2023-07-16T03:30:52;100140.91;;;18.11;76.74
43420;BME280;29017;51.514;-0.178;2023-07-16T03:33:21;100155.25;;;18.10;76.50
43420;BME280;29017;51.514;-0.178;2023-07-16T03:35:49;100142.59;;;18.06;75.77
43420;BME280;29017;51.514;-0.178;2023-07-16T03:38:16;100154.72;;;18.02;76.05
43420;BME280;29017;51.514;-0.178;2023-07-16T03:40:46;100154.09;;;18.00;76.53
43420;BME280;29017;51.514;-0.178;2023-07-16T03:43:15;100151.28;;;17.94;75.42
43420;BME280;29017;51.514;-0.178;2023-07-16T03:45:43;100163.63;;;17.89;75.68
43420;BME280;29017;51.514;-0.178;2023-07-16T03:48:10;100163.44;;;17.84;76.56
43420;BME280;29017;51.514;-0.178;2023-07-16T03:50:37;100164.47;;;17.83;76.28
43420;BME280;29017;51.514;-0.178;2023-07-16T03:53:05;100159.38;;;17.81;76.19
43420;BME280;29017;51.514;-0.178;2023-07-16T03:55:32;100175.72;;;17.85;76.43
43420;BME280;29017;51.514;-0.178;2023-07-16T03:57:59;100176.91;;;17.89;77.21
43420;BME280;29017;51.514;-0.178;2023-07-16T04:00:27;100180.41;;;17.89;76.96
43420;BME280;29017;51.514;-0.178;2023-07-16T04:02:54;100176.50;;;17.92;76.57
43420;BME280;29017;51.514;-0.178;2023-07-16T04:05:21;100191.41;;;17.93;76.73
43420;BME280;29017;51.514;-0.178;2023-07-16T04:07:50;100192.06;;;17.88;75.77
43420;BME280;29017;51.514;-0.178;2023-07-16T04:10:18;100194.34;;;17.85;75.91
43420;BME280;29017;51.514;-0.178;2023-07-16T04:12:45;100191.91;;;17.83;76.22
43420;BME280;29017;51.514;-0.178;2023-07-16T04:15:12;100201.53;;;17.84;76.76
43420;BME280;29017;51.514;-0.178;2023-07-16T04:17:40;100200.31;;;17.87;76.58
43420;BME280;29017;51.514;-0.178;2023-07-16T04:20:08;100208.44;;;17.92;75.50
43420;BME280;29017;51.514;-0.178;2023-07-16T04:22:35;100212.34;;;17.89;75.91
43420;BME280;29017;51.514;-0.178;2023-07-16T04:25:03;100218.69;;;17.88;75.97
43420;BME280;29017;51.514;-0.178;2023-07-16T04:27:30;100219.50;;;17.89;76.58
43420;BME280;29017;51.514;-0.178;2023-07-16T04:29:58;100215.44;;;17.86;75.50
43420;BME280;29017;51.514;-0.178;2023-07-16T04:32:25;100229.16;;;17.83;75.29
43420;BME280;29017;51.514;-0.178;2023-07-16T04:34:53;100229.63;;;17.80;75.49
43420;BME280;29017;51.514;-0.178;2023-07-16T04:37:20;100230.00;;;17.84;75.62
43420;BME280;29017;51.514;-0.178;2023-07-16T04:39:47;100237.97;;;17.84;75.80
43420;BME280;29017;51.514;-0.178;2023-07-16T04:42:15;100249.72;;;17.76;75.03
43420;BME280;29017;51.514;-0.178;2023-07-16T04:44:44;100246.44;;;17.74;75.53
43420;BME280;29017;51.514;-0.178;2023-07-16T04:47:11;100247.03;;;17.76;75.85
43420;BME280;29017;51.514;-0.178;2023-07-16T04:49:38;100256.69;;;17.71;74.73
43420;BME280;29017;51.514;-0.178;2023-07-16T04:52:06;100253.88;;;17.66;75.44
43420;BME280;29017;51.514;-0.178;2023-07-16T04:54:36;100258.16;;;17.67;76.08
43420;BME280;29017;51.514;-0.178;2023-07-16T04:57:06;100256.09;;;17.69;75.71
43420;BME280;29017;51.514;-0.178;2023-07-16T04:59:34;100262.84;;;17.71;75.73
43420;BME280;29017;51.514;-0.178;2023-07-16T05:02:04;100269.81;;;17.66;75.51
43420;BME280;29017;51.514;-0.178;2023-07-16T05:04:33;100278.19;;;17.69;76.15
43420;BME280;29017;51.514;-0.178;2023-07-16T05:07:02;100283.31;;;17.71;75.40
43420;BME280;29017;51.514;-0.178;2023-07-16T05:09:29;100280.44;;;17.72;74.90
43420;BME280;29017;51.514;-0.178;2023-07-16T05:11:57;100278.81;;;17.71;75.33
43420;BME280;29017;51.514;-0.178;2023-07-16T05:14:26;100278.81;;;17.71;75.12
43420;BME280;29017;51.514;-0.178;2023-07-16T05:16:54;100293.31;;;17.75;75.70
43420;BME280;29017;51.514;-0.178;2023-07-16T05:19:22;100290.84;;;17.80;75.16
43420;BME280;29017;51.514;-0.178;2023-07-16T05:21:50;100290.00;;;17.80;75.36
43420;BME280;29017;51.514;-0.178;2023-07-16T05:24:17;100295.34;;;17.80;75.40
43420;BME280;29017;51.514;-0.178;2023-07-16T05:26:44;100295.94;;;17.82;75.02
43420;BME280;29017;51.514;-0.178;2023-07-16T05:29:12;100297.63;;;17.76;74.03
43420;BME280;29017;51.514;-0.178;2023-07-16T05:31:39;100304.78;;;17.76;74.91
43420;BME280;29017;51.514;-0.178;2023-07-16T05:34:06;100297.38;;;17.78;75.57
43420;BME280;29017;51.514;-0.178;2023-07-16T05:36:34;100300.28;;;17.76;74.85
43420;BME280;29017;51.514;-0.178;2023-07-16T05:39:01;100305.16;;;17.79;75.91
43420;BME280;29017;51.514;-0.178;2023-07-16T05:41:28;100310.66;;;17.84;75.13
43420;BME280;29017;51.514;-0.178;2023-07-16T05:43:56;100301.66;;;17.85;74.15
43420;BME280;29017;51.514;-0.178;2023-07-16T05:46:23;100312.31;;;17.85;74.54
43420;BME280;29017;51.514;-0.178;2023-07-16T05:48:51;100324.34;;;17.88;74.22
43420;BME280;29017;51.514;-0.178;2023-07-16T05:51:19;100324.59;;;17.86;73.89
43420;BME280;29017;51.514;-0.178;2023-07-16T05:53:46;100322.09;;;17.91;74.63
43420;BME280;29017;51.514;-0.178;2023-07-16T05:56:16;100322.50;;;17.88;73.87
43420;BME280;29017;51.514;-0.178;2023-07-16T05:58:44;100328.25;;;17.92;73.90
43420;BME280;29017;51.514;-0.178;2023-07-16T06:01:11;100324.16;;;17.89;73.41
43420;BME280;29017;51.514;-0.178;2023-07-16T06:03:39;100325.59;;;17.92;73.53
43420;BME280;29017;51.514;-0.178;2023-07-16T06:06:08;100339.47;;;17.94;72.95
43420;BME280;29017;51.514;-0.178;2023-07-16T06:08:36;100332.13;;;17.96;73.13
43420;BME280;29017;51.514;-0.178;2023-07-16T06:11:03;100337.22;;;17.98;73.15
43420;BME280;29017;51.514;-0.178;2023-07-16T06:13:31;100338.63;;;18.00;72.96
43420;BME280;29017;51.514;-0.178;2023-07-16T06:15:58;100343.94;;;18.07;73.27
43420;BME280;29017;51.514;-0.178;2023-07-16T06:18:25;100346.97;;;18.10;72.52
43420;BME280;29017;51.514;-0.178;2023-07-16T06:20:53;100351.28;;;18.11;72.02
43420;BME280;29017;51.514;-0.178;2023-07-16T06:23:22;100353.50;;;18.14;71.73
43420;BME280;29017;51.514;-0.178;2023-07-16T06:25:54;100359.25;;;18.18;71.76
43420;BME280;29017;51.514;-0.178;2023-07-16T06:28:22;100355.09;;;18.28;73.12
43420;BME280;29017;51.514;-0.178;2023-07-16T06:30:50;100344.59;;;18.33;70.99
43420;BME280;29017;51.514;-0.178;2023-07-16T06:33:19;100356.34;;;18.51;70.42
43420;BME280;29017;51.514;-0.178;2023-07-16T06:35:47;100352.47;;;18.78;69.83
43420;BME280;29017;51.514;-0.178;2023-07-16T06:38:14;100380.66;;;18.92;69.44
43420;BME280;29017;51.514;-0.178;2023-07-16T06:40:52;100379.47;;;18.88;67.98
43420;BME280;29017;51.514;-0.178;2023-07-16T06:43:19;100381.75;;;18.85;68.47
43420;BME280;29017;51.514;-0.178;2023-07-16T06:45:49;100387.56;;;18.75;67.50
43420;BME280;29017;51.514;-0.178;2023-07-16T06:48:17;100386.66;;;18.63;67.66
43420;BME280;29017;51.514;-0.178;2023-07-16T06:50:45;100387.50;;;18.50;68.15
43420;BME280;29017;51.514;-0.178;2023-07-16T06:53:12;100395.50;;;18.50;69.19
43420;BME280;29017;51.514;-0.178;2023-07-16T06:55:39;100391.81;;;18.58;69.92
43420;BME280;29017;51.514;-0.178;2023-07-16T06:58:10;100400.38;;;18.60;69.70
43420;BME280;29017;51.514;-0.178;2023-07-16T07:00:37;100393.66;;;18.57;68.41
43420;BME280;29017;51.514;-0.178;2023-07-16T07:03:04;100396.84;;;18.66;69.64
43420;BME280;29017;51.514;-0.178;2023-07-16T07:05:32;100399.53;;;18.66;69.48
43420;BME280;29017;51.514;-0.178;2023-07-16T07:07:59;100401.97;;;18.67;68.69
43420;BME280;29017;51.514;-0.178;2023-07-16T07:10:27;100405.47;;;18.68;68.15
43420;BME280;29017;51.514;-0.178;2023-07-16T07:12:54;100418.56;;;18.69;69.30
43420;BME280;29017;51.514;-0.178;2023-07-16T07:15:21;100424.50;;;18.71;68.62
43420;BME280;29017;51.514;-0.178;2023-07-16T07:17:48;100428.97;;;18.77;69.36
43420;BME280;29017;51.514;-0.178;2023-07-16T07:20:20;100432.47;;;18.78;68.36
43420;BME280;29017;51.514;-0.178;2023-07-16T07:22:47;100430.38;;;18.80;68.88
43420;BME280;29017;51.514;-0.178;2023-07-16T07:25:15;100432.22;;;18.79;67.80
43420;BME280;29017;51.514;-0.178;2023-07-16T07:27:42;100442.91;;;18.79;67.87
43420;BME280;29017;51.514;-0.178;2023-07-16T07:30:10;100444.78;;;18.79;67.47
43420;BME280;29017;51.514;-0.178;2023-07-16T07:32:37;100447.38;;;18.86;68.55
43420;BME280;29017;51.514;-0.178;2023-07-16T07:35:06;100456.34;;;18.91;68.49
43420;BME280;29017;51.514;-0.178;2023-07-16T07:37:33;100470.50;;;18.92;68.06
43420;BME280;29017;51.514;-0.178;2023-07-16T07:40:01;100457.19;;;18.92;68.15
43420;BME280;29017;51.514;-0.178;2023-07-16T07:42:30;100476.50;;;18.87;67.55
43420;BME280;29017;51.514;-0.178;2023-07-16T07:44:57;100466.84;;;18.86;67.84
43420;BME280;29017;51.514;-0.178;2023-07-16T07:47:24;100466.84;;;18.86;68.04
43420;BME280;29017;51.514;-0.178;2023-07-16T07:49:52;100467.88;;;18.85;67.63
43420;BME280;29017;51.514;-0.178;2023-07-16T07:52:20;100485.03;;;18.96;67.77
43420;BME280;29017;51.514;-0.178;2023-07-16T07:54:47;100470.56;;;19.10;67.08
43420;BME280;29017;51.514;-0.178;2023-07-16T07:57:14;100468.00;;;19.21;66.96
43420;BME280;29017;51.514;-0.178;2023-07-16T07:59:44;100470.03;;;19.26;66.60
43420;BME280;29017;51.514;-0.178;2023-07-16T08:02:11;100465.09;;;19.30;66.30
43420;BME280;29017;51.514;-0.178;2023-07-16T08:04:39;100463.53;;;19.40;66.35
43420;BME280;29017;51.514;-0.178;2023-07-16T08:07:06;100457.16;;;19.48;65.75
43420;BME280;29017;51.514;-0.178;2023-07-16T08:09:34;100460.72;;;19.60;66.35
43420;BME280;29017;51.514;-0.178;2023-07-16T08:12:01;100457.53;;;19.70;66.04
43420;BME280;29017;51.514;-0.178;2023-07-16T08:14:29;100473.25;;;19.78;65.73
43420;BME280;29017;51.514;-0.178;2023-07-16T08:16:56;100475.28;;;19.82;65.56
43420;BME280;29017;51.514;-0.178;2023-07-16T08:19:23;100469.94;;;19.82;64.64
43420;BME280;29017;51.514;-0.178;2023-07-16T08:21:51;100476.69;;;19.85;65.63
43420;BME280;29017;51.514;-0.178;2023-07-16T08:24:18;100477.06;;;19.88;65.53
43420;BME280;29017;51.514;-0.178;2023-07-16T08:26:46;100476.03;;;19.89;64.33
43420;BME280;29017;51.514;-0.178;2023-07-16T08:29:13;100480.34;;;19.90;65.12
43420;BME280;29017;51.514;-0.178;2023-07-16T08:31:40;100479.72;;;19.88;65.55
43420;BME280;29017;51.514;-0.178;2023-07-16T08:34:08;100479.66;;;19.95;65.22
43420;BME280;29017;51.514;-0.178;2023-07-16T08:36:36;100486.13;;;20.05;65.28
43420;BME280;29017;51.514;-0.178;2023-07-16T08:39:05;100486.47;;;20.09;64.72
43420;BME280;29017;51.514;-0.178;2023-07-16T08:41:32;100490.41;;;20.06;63.77
43420;BME280;29017;51.514;-0.178;2023-07-16T08:44:00;100486.47;;;20.09;63.41
43420;BME280;29017;51.514;-0.178;2023-07-16T08:46:28;100501.91;;;20.07;62.81
43420;BME280;29017;51.514;-0.178;2023-07-16T08:48:56;100506.22;;;20.08;63.12
43420;BME280;29017;51.514;-0.178;2023-07-16T08:51:25;100495.16;;;20.04;61.87
43420;BME280;29017;51.514;-0.178;2023-07-16T08:53:53;100499.84;;;20.09;61.59
43420;BME280;29017;51.514;-0.178;2023-07-16T08:56:21;100504.06;;;20.17;62.02
43420;BME280;29017;51.514;-0.178;2023-07-16T08:58:49;100498.63;;;20.23;62.52
43420;BME280;29017;51.514;-0.178;2023-07-16T09:01:16;100505.41;;;20.26;60.56
43420;BME280;29017;51.514;-0.178;2023-07-16T09:03:49;100500.59;;;20.34;61.28
43420;BME280;29017;51.514;-0.178;2023-07-16T09:06:17;100496.78;;;20.42;61.66
43420;BME280;29017;51.514;-0.178;2023-07-16T09:08:46;100502.94;;;20.42;60.39
43420;BME280;29017;51.514;-0.178;2023-07-16T09:11:13;100511.09;;;20.47;61.28
43420;BME280;29017;51.514;-0.178;2023-07-16T09:13:44;100509.41;;;20.53;59.97
43420;BME280;29017;51.514;-0.178;2023-07-16T09:16:12;100513.72;;;20.54;58.03
43420;BME280;29017;51.514;-0.178;2023-07-16T09:18:40;100518.00;;;20.55;58.98
43420;BME280;29017;51.514;-0.178;2023-07-16T09:21:08;100519.94;;;20.66;59.75
43420;BME280;29017;51.514;-0.178;2023-07-16T09:23:36;100516.72;;;20.76;59.10
43420;BME280;29017;51.514;-0.178;2023-07-16T09:26:04;100511.84;;;20.84;58.50
43420;BME280;29017;51.514;-0.178;2023-07-16T09:28:32;100516.63;;;20.94;56.28
43420;BME280;29017;51.514;-0.178;2023-07-16T09:31:07;100520.88;;;21.02;55.62
43420;BME280;29017;51.514;-0.178;2023-07-16T09:33:35;100521.00;;;21.07;55.77
43420;BME280;29017;51.514;-0.178;2023-07-16T09:36:03;100534.72;;;21.10;53.93
43420;BME280;29017;51.514;-0.178;2023-07-16T09:38:32;100532.06;;;21.10;52.92
43420;BME280;29017;51.514;-0.178;2023-07-16T09:41:02;100533.78;;;21.05;52.18
43420;BME280;29017;51.514;-0.178;2023-07-16T09:43:29;100533.44;;;21.01;51.57
43420;BME280;29017;51.514;-0.178;2023-07-16T09:45:58;100534.81;;;21.04;52.17
43420;BME280;29017;51.514;-0.178;2023-07-16T09:48:26;100533.34;;;21.08;52.03
43420;BME280;29017;51.514;-0.178;2023-07-16T09:50:54;100539.59;;;21.13;51.43
43420;BME280;29017;51.514;-0.178;2023-07-16T09:53:23;100537.56;;;21.15;51.26
43420;BME280;29017;51.514;-0.178;2023-07-16T09:55:55;100533.75;;;21.23;51.40
43420;BME280;29017;51.514;-0.178;2023-07-16T09:58:24;100538.53;;;21.32;51.72
43420;BME280;29017;51.514;-0.178;2023-07-16T10:00:52;100537.38;;;21.40;51.64
43420;BME280;29017;51.514;-0.178;2023-07-16T10:03:20;100538.66;;;21.49;50.89
43420;BME280;29017;51.514;-0.178;2023-07-16T10:05:47;100545.09;;;21.48;50.75
43420;BME280;29017;51.514;-0.178;2023-07-16T10:08:17;100549.63;;;21.48;49.89
43420;BME280;29017;51.514;-0.178;2023-07-16T10:10:47;100543.78;;;21.51;49.93
43420;BME280;29017;51.514;-0.178;2023-07-16T10:13:16;100545.88;;;21.60;49.43
43420;BME280;29017;51.514;-0.178;2023-07-16T10:20:51;100553.94;;;21.84;50.40
43420;BME280;29017;51.514;-0.178;2023-07-16T10:23:19;100545.09;;;21.95;48.75
43420;BME280;29017;51.514;-0.178;2023-07-16T10:28:20;100552.91;;;22.08;49.60
43420;BME280;29017;51.514;-0.178;2023-07-16T10:30:49;100555.69;;;22.13;47.26
43420;BME280;29017;51.514;-0.178;2023-07-16T10:33:17;100554.78;;;22.19;48.60
43420;BME280;29017;51.514;-0.178;2023-07-16T10:35:45;100556.59;;;22.30;49.12
43420;BME280;29017;51.514;-0.178;2023-07-16T10:38:13;100565.31;;;22.37;48.50
43420;BME280;29017;51.514;-0.178;2023-07-16T10:40:44;100570.19;;;22.40;48.74
43420;BME280;29017;51.514;-0.178;2023-07-16T10:43:12;100565.66;;;22.41;49.80
43420;BME280;29017;51.514;-0.178;2023-07-16T10:45:40;100566.63;;;22.35;47.94
43420;BME280;29017;51.514;-0.178;2023-07-16T10:48:08;100556.03;;;22.28;47.85
43420;BME280;29017;51.514;-0.178;2023-07-16T10:50:37;100563.97;;;22.23;47.75
43420;BME280;29017;51.514;-0.178;2023-07-16T10:53:05;100555.69;;;22.25;47.49
43420;BME280;29017;51.514;-0.178;2023-07-16T10:55:33;100559.53;;;22.29;49.64
43420;BME280;29017;51.514;-0.178;2023-07-16T10:58:05;100557.19;;;22.32;49.11
43420;BME280;29017;51.514;-0.178;2023-07-16T11:00:38;100553.78;;;22.37;49.97
43420;BME280;29017;51.514;-0.178;2023-07-16T11:03:06;100549.81;;;22.39;48.69
43420;BME280;29017;51.514;-0.178;2023-07-16T11:05:34;100554.69;;;22.42;49.32
43420;BME280;29017;51.514;-0.178;2023-07-16T11:08:02;100558.78;;;22.45;48.95
43420;BME280;29017;51.514;-0.178;2023-07-16T11:10:30;100564.25;;;22.50;49.16
43420;BME280;29017;51.514;-0.178;2023-07-16T11:12:58;100566.22;;;22.54;48.71
43420;BME280;29017;51.514;-0.178;2023-07-16T11:15:29;100564.59;;;22.53;48.50
43420;BME280;29017;51.514;-0.178;2023-07-16T11:17:57;100567.16;;;22.48;48.44
43420;BME280;29017;51.514;-0.178;2023-07-16T11:20:24;100560.28;;;22.41;48.35
43420;BME280;29017;51.514;-0.178;2023-07-16T11:22:52;100560.28;;;22.41;49.21
43420;BME280;29017;51.514;-0.178;2023-07-16T11:25:23;100555.75;;;22.41;49.24
43420;BME280;29017;51.514;-0.178;2023-07-16T11:27:54;100558.53;;;22.46;49.98
43420;BME280;29017;51.514;-0.178;2023-07-16T11:30:23;100565.03;;;22.50;49.14
43420;BME280;29017;51.514;-0.178;2023-07-16T11:32:52;100562.47;;;22.55;49.89
43420;BME280;29017;51.514;-0.178;2023-07-16T11:35:20;100553.03;;;22.53;48.75
43420;BME280;29017;51.514;-0.178;2023-07-16T11:37:48;100552.34;;;22.46;49.25
43420;BME280;29017;51.514;-0.178;2023-07-16T11:40:17;100560.28;;;22.41;49.20
43420;BME280;29017;51.514;-0.178;2023-07-16T11:42:45;100556.00;;;22.40;49.95
43420;BME280;29017;51.514;-0.178;2023-07-16T11:47:45;100564.50;;;22.48;50.17
43420;BME280;29017;51.514;-0.178;2023-07-16T11:50:12;100569.25;;;22.58;49.87
43420;BME280;29017;51.514;-0.178;2023-07-16T11:52:41;100548.22;;;22.67;49.78
43420;BME280;29017;51.514;-0.178;2023-07-16T11:55:08;100562.56;;;22.72;49.63
43420;BME280;29017;51.514;-0.178;2023-07-16T11:57:36;100563.84;;;22.70;48.83
43420;BME280;29017;51.514;-0.178;2023-07-16T12:00:04;100560.81;;;22.66;47.87
43420;BME280;29017;51.514;-0.178;2023-07-16T12:02:32;100572.84;;;22.64;47.01
43420;BME280;29017;51.514;-0.178;2023-07-16T12:05:03;100564.22;;;22.61;48.82
43420;BME280;29017;51.514;-0.178;2023-07-16T12:10:04;100588.34;;;22.73;50.06
43420;BME280;29017;51.514;-0.178;2023-07-16T12:12:33;100593.00;;;22.78;49.05
43420;BME280;29017;51.514;-0.178;2023-07-16T12:15:00;100586.25;;;22.75;49.01
43420;BME280;29017;51.514;-0.178;2023-07-16T12:17:28;100588.13;;;22.75;48.98
43420;BME280;29017;51.514;-0.178;2023-07-16T12:19:55;100592.41;;;22.76;48.74
43420;BME280;29017;51.514;-0.178;2023-07-16T12:22:23;100581.94;;;22.74;48.36
43420;BME280;29017;51.514;-0.178;2023-07-16T12:24:51;100585.19;;;22.76;48.76
43420;BME280;29017;51.514;-0.178;2023-07-16T12:27:19;100590.81;;;22.75;49.09
43420;BME280;29017;51.514;-0.178;2023-07-16T12:29:47;100584.03;;;22.72;49.92
43420;BME280;29017;51.514;-0.178;2023-07-16T12:32:15;100594.41;;;22.69;50.01
43420;BME280;29017;51.514;-0.178;2023-07-16T12:34:42;100593.81;;;22.67;50.03
43420;BME280;29017;51.514;-0.178;2023-07-16T12:37:10;100590.22;;;22.61;49.96
43420;BME280;29017;51.514;-0.178;2023-07-16T12:39:38;100598.16;;;22.56;50.31
43420;BME280;29017;51.514;-0.178;2023-07-16T12:42:06;100600.41;;;22.47;50.96
43420;BME280;29017;51.514;-0.178;2023-07-16T12:44:33;100614.41;;;22.38;51.69
43420;BME280;29017;51.514;-0.178;2023-07-16T12:47:02;100617.22;;;22.31;52.45
43420;BME280;29017;51.514;-0.178;2023-07-16T12:49:29;100615.94;;;22.22;52.71
43420;BME280;29017;51.514;-0.178;2023-07-16T12:51:57;100614.09;;;22.11;52.69
43420;BME280;29017;51.514;-0.178;2023-07-16T12:54:24;100624.94;;;22.04;53.21
43420;BME280;29017;51.514;-0.178;2023-07-16T12:56:52;100629.38;;;21.99;53.84
43420;BME280;29017;51.514;-0.178;2023-07-16T12:59:19;100627.56;;;21.93;52.88
43420;BME280;29017;51.514;-0.178;2023-07-16T13:01:47;100622.66;;;21.90;53.36
43420;BME280;29017;51.514;-0.178;2023-07-16T13:04:14;100626.97;;;21.91;56.40
43420;BME280;29017;51.514;-0.178;2023-07-16T13:06:42;100623.03;;;21.93;53.53